This is the latest recevied weather packets stored in our database for station/object OK5TVR-5. If no packets are shown the sender has not sent any weather packets the latest 1 day(s).
| Time | Temp. | Humidity | Pressure | Rain* | Wind** | Luminosity | Snow |
|---|---|---|---|---|---|---|---|
| 1777992399 | 27.78° C | 34% | - | 0 mm | 0.89 m/s, 90° | - | - |
| 1777992399 | 27.78° C | 34% | - | 0 mm | 0.89 m/s, 90° | - | - |
| 1777992399 | 27.78° C | 34% | - | 0 mm | 0.89 m/s, 90° | - | - |
| 1777991496 | 28.33° C | 27% | - | 0 mm | 0.89 m/s, 270° | - | - |
| 1777991496 | 28.33° C | 27% | - | 0 mm | 0.89 m/s, 270° | - | - |
| 1777991496 | 28.33° C | 27% | - | 0 mm | 0.89 m/s, 270° | - | - |
| 1777990596 | 30° C | 22% | - | 0 mm | 1.34 m/s, 222° | - | - |
| 1777990596 | 30° C | 22% | - | 0 mm | 1.34 m/s, 222° | - | - |
| 1777990596 | 30° C | 22% | - | 0 mm | 1.34 m/s, 222° | - | - |
| 1777989698 | 29.44° C | 26% | - | 0 mm | 0.89 m/s, 222° | - | - |
| 1777989697 | 29.44° C | 26% | - | 0 mm | 0.89 m/s, 222° | - | - |
| 1777989697 | 29.44° C | - | - | - | 0.89 m/s, 222° | - | - |
| 1777989697 | 29.44° C | 26% | - | 0 mm | 0.89 m/s, 222° | - | - |
| 1777988800 | 30.56° C | 22% | - | 0 mm | 1.34 m/s, 135° | - | - |
| 1777988800 | 30.56° C | 22% | - | 0 mm | 1.34 m/s, 135° | - | - |
| 1777988796 | 30.56° C | 22% | - | 0 mm | 1.34 m/s, 135° | - | - |
| 1777988796 | 30.56° C | 22% | - | 0 mm | 1.34 m/s, 135° | - | - |
| 1777988796 | 30.56° C | 22% | - | 0 mm | 1.34 m/s, 135° | - | - |
| 1777987894 | 30.56° C | 33% | - | 0 mm | 2.24 m/s, 315° | - | - |
| 1777987894 | 30.56° C | 33% | - | 0 mm | 2.24 m/s, 315° | - | - |
| 1777987894 | 30.56° C | 33% | - | 0 mm | 2.24 m/s, 315° | - | - |
| 1777986992 | 28.33° C | 34% | - | 0 mm | 0.45 m/s, 315° | - | - |
| 1777986090 | 29.44° C | 26% | - | 0 mm | 1.34 m/s, 90° | - | - |
| 1777985190 | 27.22° C | 36% | - | 0 mm | 1.79 m/s, 315° | - | - |
| 1777985190 | 27.22° C | 36% | - | 0 mm | 1.79 m/s, 315° | - | - |
* Rain latest hour (hover to see other rain measurements)
** Current wind speed in m/s (hover to see current wind gust speed)